createdAt,value
2017-12-11T00:01:21.466Z,99.70
2017-12-11T00:03:48.886Z,99.60
2017-12-11T00:06:18.772Z,99.60
2017-12-11T00:08:49.979Z,99.80
2017-12-11T00:11:19.433Z,99.80
2017-12-11T00:13:46.870Z,99.90
2017-12-11T00:16:16.675Z,99.90
2017-12-11T00:18:44.164Z,99.90
2017-12-11T00:21:14.635Z,99.90
2017-12-11T00:23:43.259Z,99.90
2017-12-11T00:26:11.105Z,99.90
2017-12-11T00:28:39.629Z,99.90
2017-12-11T00:31:07.414Z,99.90
2017-12-11T00:33:34.850Z,99.90
2017-12-11T01:14:47.202Z,99.80
2017-12-11T01:17:14.606Z,99.70
2017-12-11T01:19:42.267Z,99.70
2017-12-11T01:22:09.691Z,99.50
2017-12-11T01:24:37.120Z,99.40
2017-12-11T01:27:04.551Z,99.30
2017-12-11T01:29:31.978Z,99.30
2017-12-11T01:32:00.322Z,99.30
2017-12-11T01:34:27.744Z,99.20
2017-12-11T01:36:55.170Z,99.20
2017-12-11T01:39:22.596Z,99.60
2017-12-11T01:41:50.021Z,99.90
2017-12-11T01:44:17.854Z,99.90
2017-12-11T01:46:45.279Z,99.90
2017-12-11T01:49:12.740Z,99.90
2017-12-11T01:51:40.188Z,99.90
2017-12-11T01:54:07.635Z,99.90
2017-12-11T01:56:36.040Z,99.90
2017-12-11T01:59:03.494Z,99.90
2017-12-11T02:01:30.918Z,99.90
2017-12-11T02:03:58.776Z,99.90
2017-12-11T02:06:26.603Z,99.90
2017-12-11T02:08:54.060Z,99.90
2017-12-11T02:11:23.438Z,99.90
2017-12-11T02:13:50.895Z,99.90
2017-12-11T02:16:18.336Z,99.90
2017-12-11T02:18:45.777Z,99.90
2017-12-11T02:21:13.612Z,99.90
2017-12-11T02:23:41.055Z,99.90
2017-12-11T02:26:08.491Z,99.90
2017-12-11T02:28:35.945Z,99.90
2017-12-11T02:31:03.475Z,99.90
2017-12-11T02:33:31.312Z,99.90
2017-12-11T02:35:58.758Z,99.90
2017-12-11T02:38:26.204Z,99.90
2017-12-11T02:40:53.649Z,99.90
2017-12-11T02:43:21.100Z,99.90
2017-12-11T02:45:48.522Z,99.90
2017-12-11T02:48:16.378Z,99.90
2017-12-11T02:50:43.799Z,99.90
2017-12-11T02:53:12.143Z,99.90
2017-12-11T02:55:39.611Z,99.90
2017-12-11T02:58:07.070Z,99.90
2017-12-11T03:00:34.537Z,99.90
2017-12-11T03:03:01.968Z,99.90
2017-12-11T03:05:29.402Z,99.90
2017-12-11T03:07:57.229Z,99.90
2017-12-11T03:10:24.689Z,99.90
2017-12-11T03:12:52.139Z,99.90
2017-12-11T03:15:19.594Z,99.90
2017-12-11T03:17:47.044Z,99.80
2017-12-11T03:20:14.486Z,99.70
2017-12-11T03:22:41.911Z,99.80
2017-12-11T03:25:11.693Z,99.70
2017-12-11T03:27:40.034Z,99.70
2017-12-11T03:30:07.475Z,99.50
2017-12-11T03:32:34.909Z,99.10
2017-12-11T03:35:02.838Z,97.90
2017-12-11T03:37:30.266Z,97.90
2017-12-11T03:39:57.706Z,97.70
2017-12-11T03:42:25.133Z,97.90
2017-12-11T03:44:52.579Z,98.10
2017-12-11T03:47:20.012Z,98.10
2017-12-11T03:49:47.468Z,98.50
2017-12-11T03:52:14.911Z,98.80
2017-12-11T03:54:42.363Z,99.00
2017-12-11T03:57:09.794Z,99.10
2017-12-11T03:59:37.614Z,99.20
2017-12-11T04:02:05.092Z,99.20
2017-12-11T04:04:33.390Z,99.10
2017-12-11T04:07:01.223Z,99.10
2017-12-11T04:09:28.670Z,99.10
2017-12-11T04:11:56.122Z,99.10
2017-12-11T04:14:23.562Z,99.10
2017-12-11T04:16:51.013Z,99.00
2017-12-11T04:19:18.457Z,99.00
2017-12-11T04:21:45.891Z,99.00
2017-12-11T04:24:13.718Z,98.80
2017-12-11T04:26:41.166Z,98.80
2017-12-11T04:29:10.561Z,98.70
2017-12-11T04:31:38.003Z,98.60
2017-12-11T04:34:05.454Z,98.50
2017-12-11T04:36:33.834Z,98.40
2017-12-11T04:39:01.279Z,98.30
2017-12-11T04:41:29.111Z,98.90
2017-12-11T04:43:56.548Z,98.90
2017-12-11T04:49:44.334Z,99.00
2017-12-11T06:45:52.738Z,98.30
2017-12-11T06:48:20.184Z,99.10
2017-12-11T06:50:47.624Z,99.00
2017-12-11T06:53:15.458Z,98.90
2017-12-11T06:55:42.894Z,98.90
2017-12-11T06:58:10.381Z,98.70
2017-12-11T07:00:37.819Z,98.60
2017-12-11T07:03:05.264Z,98.70
2017-12-11T07:05:32.697Z,98.40
2017-12-11T07:08:00.150Z,98.30
2017-12-11T07:10:27.602Z,98.40
2017-12-11T07:12:55.426Z,98.60
2017-12-11T07:15:23.791Z,98.60
2017-12-11T07:17:51.230Z,98.30
2017-12-11T07:20:18.658Z,98.20
2017-12-11T07:22:46.982Z,98.30
2017-12-11T07:25:14.397Z,98.40
2017-12-11T07:27:42.237Z,98.20
2017-12-11T07:30:09.666Z,98.20
2017-12-11T07:32:38.036Z,98.30
2017-12-11T07:35:05.516Z,98.40
2017-12-11T07:37:32.953Z,98.30
2017-12-11T07:40:00.379Z,98.50
2017-12-11T07:42:29.779Z,98.60
2017-12-11T07:44:58.118Z,98.70
2017-12-11T07:47:25.538Z,98.70
2017-12-11T07:49:52.990Z,98.80
2017-12-11T07:52:20.426Z,98.90
2017-12-11T07:54:47.871Z,99.00
2017-12-11T07:57:15.310Z,99.10
2017-12-11T07:59:43.145Z,99.30
2017-12-11T08:02:10.602Z,99.30
2017-12-11T08:04:38.391Z,99.20
2017-12-11T08:07:05.830Z,99.00
2017-12-11T08:09:33.278Z,99.10
2017-12-11T08:12:00.726Z,99.20
2017-12-11T08:14:28.175Z,99.40
2017-12-11T08:16:55.672Z,99.60
2017-12-11T08:19:23.118Z,99.80
2017-12-11T08:21:53.466Z,99.80
2017-12-11T08:24:21.295Z,99.90
2017-12-11T08:26:48.746Z,99.90
2017-12-11T08:29:16.174Z,99.80
2017-12-11T08:31:43.608Z,99.80
2017-12-11T08:34:13.507Z,99.70
2017-12-11T08:36:41.371Z,99.70
2017-12-11T08:39:09.715Z,99.70
2017-12-11T08:41:37.166Z,99.70
2017-12-11T08:44:04.599Z,99.70
2017-12-11T08:46:32.036Z,99.70
2017-12-11T08:48:59.882Z,99.60
2017-12-11T08:51:27.328Z,99.60
2017-12-11T08:53:54.811Z,99.60
2017-12-11T08:56:22.225Z,99.70
2017-12-11T08:58:49.662Z,99.80
2017-12-11T09:01:19.030Z,99.90
2017-12-11T09:03:46.876Z,99.90
2017-12-11T09:06:16.281Z,99.90
2017-12-11T09:08:43.729Z,99.90
2017-12-11T09:11:11.154Z,99.80
2017-12-11T09:13:38.621Z,99.50
2017-12-11T09:16:06.061Z,99.30
2017-12-11T09:18:33.501Z,99.10
2017-12-11T09:21:00.941Z,99.00
2017-12-11T09:23:28.777Z,99.10
2017-12-11T09:25:57.136Z,99.10
2017-12-11T09:28:25.453Z,98.90
2017-12-11T09:30:54.158Z,98.60
2017-12-11T09:33:21.989Z,98.60
2017-12-11T09:35:49.458Z,98.60
2017-12-11T09:38:16.904Z,98.70
2017-12-11T09:40:44.362Z,98.70
2017-12-11T09:43:11.797Z,98.60
2017-12-11T09:45:39.248Z,98.60
2017-12-11T09:48:06.675Z,98.60
2017-12-11T09:50:34.098Z,98.70
2017-12-11T09:53:02.413Z,98.80
2017-12-11T09:55:29.844Z,98.80
2017-12-11T09:57:57.676Z,99.10
2017-12-11T10:00:25.126Z,99.10
2017-12-11T10:02:52.566Z,99.10
2017-12-11T10:05:20.015Z,99.20
2017-12-11T10:07:47.447Z,99.30
2017-12-11T10:10:14.887Z,99.50
2017-12-11T10:12:42.759Z,99.50
2017-12-11T10:15:10.581Z,99.60
2017-12-11T10:17:38.055Z,99.60
2017-12-11T10:20:06.374Z,99.70
2017-12-11T10:22:34.721Z,99.80
2017-12-11T10:25:02.155Z,99.50
2017-12-11T10:27:29.602Z,99.30
2017-12-11T10:29:57.046Z,99.10
2017-12-11T10:32:24.488Z,98.80
2017-12-11T10:34:51.918Z,98.60
2017-12-11T10:37:19.391Z,98.80
2017-12-11T10:39:47.281Z,99.10
2017-12-11T10:42:14.726Z,99.10
2017-12-11T10:44:42.151Z,99.20
2017-12-11T10:47:10.000Z,99.40
2017-12-11T10:49:37.431Z,99.40
2017-12-11T10:52:04.894Z,99.50
2017-12-11T10:54:33.198Z,99.60
2017-12-11T10:57:00.659Z,99.80
2017-12-11T10:59:28.102Z,99.90
2017-12-11T11:01:55.549Z,99.90
2017-12-11T11:04:22.991Z,99.90
2017-12-11T11:06:50.430Z,99.90
2017-12-11T11:09:17.888Z,99.90
2017-12-11T11:11:45.336Z,99.90
2017-12-11T11:14:12.760Z,99.90
2017-12-11T11:16:40.638Z,99.90
2017-12-11T11:19:08.474Z,99.90
2017-12-11T11:21:37.794Z,99.90
2017-12-11T11:24:05.242Z,99.90
2017-12-11T11:26:32.695Z,99.90
2017-12-11T11:29:00.142Z,99.90
2017-12-11T11:31:28.475Z,99.90
2017-12-11T11:33:55.909Z,99.90
2017-12-11T11:36:23.751Z,99.90
2017-12-11T11:38:51.199Z,99.90
2017-12-11T11:41:18.637Z,99.90
2017-12-11T11:43:46.079Z,99.90
2017-12-11T11:46:13.537Z,99.90
2017-12-11T11:48:41.855Z,99.90
2017-12-11T11:51:09.295Z,99.90
2017-12-11T11:53:36.737Z,99.90
2017-12-11T11:56:04.231Z,99.90
2017-12-11T11:58:31.661Z,99.90
2017-12-11T12:01:01.088Z,99.90
2017-12-11T12:03:28.522Z,99.90
2017-12-11T12:05:55.983Z,99.90
2017-12-11T12:08:23.411Z,99.90
2017-12-11T12:10:51.759Z,99.70
2017-12-11T12:13:19.790Z,99.70
2017-12-11T12:15:47.235Z,99.70
2017-12-11T12:18:14.692Z,99.90
2017-12-11T12:20:43.046Z,99.80
2017-12-11T12:23:10.482Z,99.90
2017-12-11T12:25:38.306Z,99.90
2017-12-11T12:28:05.750Z,99.90
2017-12-11T12:30:33.207Z,99.90
2017-12-11T12:33:01.519Z,99.90
2017-12-11T12:35:28.966Z,99.90
2017-12-11T12:37:56.402Z,99.90
2017-12-11T12:40:23.861Z,99.90
2017-12-11T12:42:51.286Z,99.90
2017-12-11T12:45:18.735Z,99.90
2017-12-11T12:47:46.168Z,99.90
2017-12-11T12:50:15.939Z,99.90
2017-12-11T12:52:43.390Z,99.90
2017-12-11T12:55:10.833Z,99.90
2017-12-11T12:57:38.258Z,99.90
2017-12-11T13:00:06.098Z,99.90
2017-12-11T13:02:33.539Z,99.90
2017-12-11T13:05:00.986Z,99.90
2017-12-11T13:07:28.425Z,99.90
2017-12-11T13:09:55.863Z,99.90
2017-12-11T13:12:23.306Z,99.90
2017-12-11T13:14:51.134Z,99.90
2017-12-11T13:17:18.579Z,99.90
2017-12-11T13:19:46.033Z,99.90
2017-12-11T13:22:14.398Z,99.90
2017-12-11T13:24:41.854Z,99.90
2017-12-11T13:27:09.278Z,99.90
2017-12-11T13:29:37.108Z,99.50
2017-12-11T13:32:04.563Z,99.50
2017-12-11T13:34:31.991Z,99.50
2017-12-11T13:36:59.447Z,99.20
2017-12-11T13:39:26.875Z,99.20
2017-12-11T13:41:54.711Z,99.20
2017-12-11T13:44:24.105Z,99.20
2017-12-11T13:46:51.534Z,99.20
2017-12-11T13:49:18.974Z,99.20
2017-12-11T13:51:46.431Z,99.20
2017-12-11T13:54:13.870Z,99.20
2017-12-11T13:56:43.650Z,99.10
2017-12-11T13:59:11.086Z,99.10
2017-12-11T14:01:38.990Z,98.70
2017-12-11T14:04:07.312Z,98.50
2017-12-11T14:06:34.768Z,98.40
2017-12-11T14:09:02.192Z,98.20
2017-12-11T14:11:30.061Z,98.20
2017-12-11T14:13:57.900Z,98.20
2017-12-11T14:16:25.350Z,98.20
2017-12-11T14:18:52.810Z,98.60
2017-12-11T14:21:20.255Z,98.70
2017-12-11T14:23:47.717Z,98.90
2017-12-11T14:26:15.173Z,98.90
2017-12-11T14:28:42.606Z,98.30
2017-12-11T14:31:10.783Z,98.20
2017-12-11T14:33:39.168Z,98.10
2017-12-11T14:36:06.594Z,97.90
2017-12-11T14:38:34.022Z,97.80
2017-12-11T14:41:01.870Z,98.10
2017-12-11T14:43:30.173Z,98.10
2017-12-11T14:45:58.031Z,98.40
2017-12-11T14:48:25.491Z,98.40
2017-12-11T14:50:52.919Z,98.40
2017-12-11T14:53:20.373Z,98.20
2017-12-11T14:55:48.744Z,98.20
2017-12-11T14:58:16.182Z,98.40
2017-12-11T15:00:43.638Z,98.50
2017-12-11T15:03:11.094Z,98.50
2017-12-11T15:05:38.551Z,98.30
2017-12-11T15:08:05.987Z,98.40
2017-12-11T15:10:33.438Z,98.30
2017-12-11T15:13:00.882Z,98.10
2017-12-11T15:15:28.723Z,97.90
2017-12-11T15:17:56.162Z,97.90
2017-12-11T15:20:23.610Z,97.50
2017-12-11T15:22:51.074Z,97.20
2017-12-11T15:25:18.527Z,97.20
2017-12-11T15:27:45.955Z,97.20
2017-12-11T15:30:13.399Z,97.30
2017-12-11T15:32:42.159Z,97.90
2017-12-11T15:35:09.595Z,97.90
2017-12-11T15:37:37.042Z,98.00
2017-12-11T15:40:04.495Z,98.30
2017-12-11T15:42:31.943Z,98.10
2017-12-11T15:44:59.882Z,98.10
2017-12-11T15:47:28.623Z,98.00
2017-12-11T15:49:56.065Z,98.00
2017-12-11T15:52:23.501Z,98.10
2017-12-11T15:54:50.942Z,98.20
2017-12-11T15:59:53.109Z,98.50
2017-12-11T16:02:20.982Z,98.10
2017-12-11T16:04:48.830Z,98.30
2017-12-11T16:07:16.274Z,98.30
2017-12-11T16:09:43.749Z,97.00
2017-12-11T16:12:11.605Z,97.70
2017-12-11T16:14:39.044Z,97.70
2017-12-11T16:17:06.484Z,95.60
2017-12-11T16:19:33.940Z,95.70
2017-12-11T16:22:01.420Z,96.20
2017-12-11T16:24:28.834Z,96.10
2017-12-11T16:26:56.637Z,96.30
2017-12-11T16:29:25.951Z,96.30
2017-12-11T16:31:53.380Z,96.10
2017-12-11T16:34:20.822Z,96.10
2017-12-11T16:36:49.205Z,96.30
2017-12-11T16:39:16.645Z,96.10
2017-12-11T16:41:44.066Z,95.60
2017-12-11T16:44:11.518Z,96.00
2017-12-11T16:46:38.942Z,95.70
2017-12-11T16:49:06.400Z,95.60
2017-12-11T16:51:33.831Z,95.60
2017-12-11T16:54:02.209Z,96.00
2017-12-11T16:56:29.655Z,96.00
2017-12-11T16:58:58.414Z,96.10
2017-12-11T17:01:25.863Z,96.10
2017-12-11T17:03:53.302Z,95.90
2017-12-11T17:06:20.748Z,95.40
2017-12-11T17:08:48.187Z,95.50
2017-12-11T17:11:15.624Z,95.80
2017-12-11T17:13:45.398Z,96.00
2017-12-11T17:16:12.840Z,96.00
2017-12-11T17:18:40.282Z,95.70
2017-12-11T17:21:07.730Z,95.90
2017-12-11T17:23:36.089Z,95.10
2017-12-11T17:26:03.922Z,95.00
2017-12-11T17:28:32.307Z,95.00
2017-12-11T17:30:59.754Z,94.80
2017-12-11T17:33:27.205Z,94.90
2017-12-11T17:35:54.730Z,94.10
2017-12-11T17:38:23.150Z,94.30
2017-12-11T17:40:51.485Z,94.30
2017-12-11T17:43:18.920Z,93.80
2017-12-11T17:45:46.366Z,93.60
2017-12-11T17:48:14.199Z,93.50
2017-12-11T17:50:41.645Z,93.50
2017-12-11T17:53:09.093Z,93.20
2017-12-11T17:55:36.639Z,93.00
2017-12-11T17:58:04.059Z,92.40
2017-12-11T18:00:31.903Z,92.70
2017-12-11T18:02:59.350Z,92.70
2017-12-11T18:05:26.782Z,92.50
2017-12-11T18:07:54.221Z,92.60
2017-12-11T18:10:23.428Z,92.30
2017-12-11T18:12:50.858Z,92.10
2017-12-11T18:15:18.702Z,91.60
2017-12-11T18:17:47.073Z,91.70
2017-12-11T18:20:14.510Z,91.70
2017-12-11T18:22:42.016Z,91.90
2017-12-11T18:25:09.852Z,91.70
2017-12-11T18:27:37.287Z,91.70
2017-12-11T18:30:04.741Z,91.30
2017-12-11T18:32:33.109Z,90.70
2017-12-11T18:35:00.563Z,91.30
2017-12-11T18:37:27.993Z,91.70
2017-12-11T18:39:55.445Z,91.70
2017-12-11T18:42:23.303Z,91.10
2017-12-11T18:44:50.735Z,91.00
2017-12-11T18:47:18.170Z,91.40
2017-12-11T18:49:45.621Z,91.10
2017-12-11T18:52:13.070Z,91.20
2017-12-11T18:54:40.512Z,91.40
2017-12-11T18:57:09.214Z,91.30
2017-12-11T18:59:36.638Z,91.10
2017-12-11T19:02:05.351Z,91.00
2017-12-11T19:04:32.883Z,91.00
2017-12-11T19:07:00.694Z,91.10
2017-12-11T19:09:28.151Z,91.10
2017-12-11T19:11:55.600Z,90.90
2017-12-11T19:14:23.046Z,90.70
2017-12-11T19:16:50.816Z,91.00
2017-12-11T19:19:18.250Z,90.60
2017-12-11T19:21:45.690Z,90.90
2017-12-11T19:24:14.398Z,90.60
2017-12-11T19:26:41.834Z,90.60
2017-12-11T19:29:10.803Z,90.80
2017-12-11T19:31:38.246Z,90.80
2017-12-11T19:34:05.705Z,90.70
2017-12-11T19:36:33.146Z,90.30
2017-12-11T19:39:00.598Z,90.40
2017-12-11T19:41:28.027Z,90.70
2017-12-11T20:18:17.384Z,89.40
2017-12-11T20:20:44.823Z,89.90
2017-12-11T20:23:12.260Z,89.80
2017-12-11T20:25:39.716Z,89.80
2017-12-11T20:28:07.146Z,89.10
2017-12-11T20:30:35.114Z,89.00
2017-12-11T20:33:03.685Z,89.50
2017-12-11T20:35:31.575Z,89.30
2017-12-11T20:37:59.529Z,89.20
2017-12-11T20:40:27.395Z,89.60
2017-12-11T20:42:54.878Z,89.50
2017-12-11T20:45:22.382Z,88.90
2017-12-11T20:47:49.903Z,89.20
2017-12-11T20:50:17.389Z,89.00
2017-12-11T20:52:45.799Z,89.30
2017-12-11T20:55:14.560Z,89.00
2017-12-11T20:57:42.843Z,89.00
2017-12-11T21:00:10.385Z,89.30
2017-12-11T21:02:37.925Z,89.00
2017-12-11T21:05:05.399Z,89.10
2017-12-11T21:07:34.791Z,88.70
2017-12-11T21:10:02.322Z,88.60
2017-12-11T21:12:29.770Z,88.50
2017-12-11T21:14:57.634Z,88.60
2017-12-11T21:17:25.471Z,88.10
2017-12-11T21:19:55.888Z,88.10
2017-12-11T21:22:23.354Z,88.30
2017-12-11T21:24:50.836Z,88.00
2017-12-11T21:27:18.710Z,88.80
2017-12-11T21:29:46.575Z,89.30
2017-12-11T21:32:14.435Z,89.70
2017-12-11T21:34:42.340Z,90.80
2017-12-11T21:37:09.824Z,90.80
2017-12-11T21:39:37.305Z,91.70
2017-12-11T21:42:04.755Z,92.30
2017-12-11T21:44:32.257Z,93.20
2017-12-11T21:47:00.206Z,94.00
2017-12-11T21:49:28.080Z,94.50
2017-12-11T21:51:55.929Z,94.90
2017-12-11T21:54:23.857Z,95.50
2017-12-11T21:56:52.280Z,95.60
2017-12-11T21:59:22.404Z,95.90
2017-12-11T22:01:50.565Z,96.40
2017-12-11T22:04:18.466Z,96.80
2017-12-11T22:06:45.929Z,96.80
2017-12-11T22:09:15.382Z,96.30
2017-12-11T22:11:42.837Z,96.60
2017-12-11T22:14:10.271Z,96.80
2017-12-11T22:16:38.635Z,96.80
2017-12-11T22:19:06.095Z,97.20
2017-12-11T22:21:33.547Z,97.10
2017-12-11T22:24:01.003Z,96.90
2017-12-11T22:26:28.481Z,96.90
2017-12-11T22:28:55.935Z,97.00
2017-12-11T22:31:23.409Z,97.20
2017-12-11T22:33:50.894Z,97.30
2017-12-11T22:36:18.332Z,96.90
2017-12-11T22:38:46.706Z,96.70
2017-12-11T22:41:14.146Z,96.60
2017-12-11T22:43:41.591Z,96.40
2017-12-11T22:46:09.043Z,95.90
2017-12-11T22:48:36.514Z,95.50
2017-12-11T22:51:03.989Z,94.90
2017-12-11T22:53:31.477Z,94.50
2017-12-11T22:55:59.322Z,94.20
2017-12-11T22:58:26.902Z,94.20
2017-12-11T23:00:54.755Z,93.70
2017-12-11T23:03:25.537Z,93.70
2017-12-11T23:05:53.744Z,93.70
2017-12-11T23:08:21.190Z,93.80
2017-12-11T23:10:49.065Z,93.40
2017-12-11T23:13:16.522Z,93.50
2017-12-11T23:15:43.977Z,93.20
2017-12-11T23:18:12.305Z,93.30
2017-12-11T23:20:39.761Z,92.80
2017-12-11T23:23:07.672Z,93.00
2017-12-11T23:25:35.114Z,93.00
2017-12-11T23:28:02.593Z,93.10
2017-12-11T23:30:30.049Z,92.50
2017-12-11T23:32:57.523Z,92.30
2017-12-11T23:35:24.972Z,92.00
2017-12-11T23:37:52.422Z,91.80
2017-12-11T23:40:19.878Z,91.80
2017-12-11T23:42:47.339Z,91.40
2017-12-11T23:45:15.689Z,91.30
2017-12-11T23:47:43.138Z,91.40
2017-12-11T23:50:10.572Z,91.40
2017-12-11T23:52:38.021Z,90.70
2017-12-11T23:55:05.909Z,90.70
2017-12-11T23:57:33.343Z,90.60
